Observations for CHERBOURG MAUPERTUS, France (LFRC)

LFRC 252200Z AUTO 29004KT 260V340 4400 BR BKN005 OVC022 16/15 Q1021 
LFRC 252130Z AUTO VRB03KT 5000 BR BKN005 OVC018 16/15 Q1021 
LFRC 252100Z AUTO 29004KT 260V340 4800 BR OVC003 16/15 Q1021
LFRC 252030Z AUTO 27006KT 5000 BR BKN003 OVC007 15/15 Q1021 
LFRC 252000Z AUTO 29005KT 240V340 7000 BKN004 OVC008 15/15 Q1021
LFRC 251930Z AUTO 29004KT 260V330 6000 BKN004 OVC010 15/15 Q1021
LFRC 251900Z AUTO 29005KT 260V330 6000 OVC004 16/15 Q1021   
LFRC 251830Z AUTO 29005KT 270V330 6000 OVC004 16/15 Q1021   
LFRC 251800Z AUTO 29005KT 260V330 7000 BKN004 OVC010 16/15 Q1021 TEMPO BKN020   
LFRC 251730Z AUTO 29004KT 260V330 9999 BKN005 OVC010 15/14 Q1020 TEMPO BKN020   
LFRC 251700Z AUTO 29006KT 260V320 9999 BKN005 OVC013 16/14 Q1020 TEMPO BKN020   
LFRC 251630Z AUTO 30005KT 270V340 9999 OVC011 16/14 Q1020 TEMPO BKN020  
LFRC 251600Z AUTO 30006KT 270V340 9999 BKN007 OVC011 15/13 Q1020 NOSIG  
LFRC 251530Z AUTO 29005KT 260V330 9999 BKN006 BKN011 OVC017 16/15 Q1020 NOSIG   
LFRC 251500Z AUTO 30005KT 260V330 9999 BKN006 OVC010 15/14 Q1019 NOSIG  
LFRC 251430Z AUTO 29007KT 260V320 9999 OVC004 15/14 Q1019 TEMPO BKN006  
LFRC 251400Z AUTO 29007KT 260V320 9999 BKN004 OVC011 16/15 Q1019 TEMPO 4000 RA BKN006   
LFRC 251330Z AUTO 29007KT 260V330 9999 BKN005 OVC010 16/14 Q1019 TEMPO 4000 RA  
LFRC 251300Z AUTO 29007KT 260V340 9999 BKN005 OVC009 16/14 Q1019 TEMPO 4000 RA  
LFRC 251230Z AUTO 30007KT 260V330 9999 BKN006 OVC011 16/14 Q1019 TEMPO 4000 RA BKN004   
LFRC 251200Z AUTO 31006KT 270V340 9999 OVC004 16/15 Q1019 TEMPO 4000 RA BKN006  
LFRC 251130Z AUTO 31006KT 270V340 9999 BKN004 OVC008 16/15 Q1019 TEMPO 4000 RA BKN006   
LFRC 251100Z AUTO 31007KT 270V340 9999 FEW006 OVC011 16/15 Q1019 TEMPO 4000 RA BKN006   
LFRC 251030Z AUTO 31006KT 270V340 9999 BKN004 OVC012 16/15 Q1018 TEMPO 4000 RA BKN006   
LFRC 251000Z AUTO 32006KT 280V350 9999 OVC003 16/15 Q1018 TEMPO 4000 RA VV///   
LFRC 250930Z AUTO 33007KT 270V350 2400 BR VV/// 16/15 Q1018 TEMPO 4000 RA BKN006
LFRC 250900Z AUTO 33007KT 290V350 0750 0600 R28/1400N FG VV/// 16/15 Q1018 TEMPO 4000 RA BKN006 
LFRC 250830Z AUTO 31005KT 270V340 7000 BKN002 OVC008 16/15 Q1018 TEMPO 4000 RA BKN006   
LFRC 250800Z AUTO 28005KT 4100 1500 BR BKN002 OVC008 16/15 Q1017 TEMPO 2000 RA BKN005   
LFRC 250730Z AUTO 27005KT 240V300 7000 OVC003 15/15 Q1017 TEMPO 2000 RA BKN005  
LFRC 250700Z AUTO 25005KT 7000 BKN003 OVC007 15/15 Q1017 TEMPO 2000 RA VV///
LFRC 250630Z AUTO 25004KT 7000 OVC002 15/15 Q1017 TEMPO 2000 RA VV///   
LFRC 250600Z AUTO 25005KT 1100 R28/1400U BR VV/// 15/15 Q1017 BECMG 9999 NSW BKN020 
LFRC 250530Z AUTO 25003KT 1300 0700 R28/1900D BCFG VV/// 16/15 Q1017 BECMG 9999 NSW BKN020  
LFRC 250500Z AUTO VRB03KT 4800 BR OVC002 16/15 Q1016
LFRC 250430Z AUTO VRB03KT 4000 1200 R28/P2000 BR OVC002 16/15 Q1016 
LFRC 250400Z AUTO 20004KT 6000 OVC002/// ///TCU 16/15 Q1016 
LFRC 250330Z AUTO VRB03KT 5000 -RA BR BKN002/// BKN013/// BKN019/// ///TCU 16/15 Q1016  
LFRC 250300Z AUTO 24005KT 6000 RA BKN003/// BKN010/// BKN021/// ///TCU 16/15 Q1016  
LFRC 250230Z AUTO 22005KT 4800 RA BR OVC003/// ///TCU 16/15 Q1016   
LFRC 250200Z AUTO 20005KT 5000 BR OVC004/// ///TCU 16/15 Q1017  
LFRC 250130Z AUTO 19003KT 8000 OVC005 16/15 Q1017   
LFRC 250100Z AUTO 20005KT 7000 VV/// ///TCU 16/15 Q1017 
LFRC 250030Z AUTO 17007KT 0600 R28/0800N FG VV/// ///TCU 15/15 Q1017
LFRC 250000Z AUTO 15007KT 0500 R28/0650N FG VV/// 15/14 Q1017   
LFRC 242330Z AUTO 13008KT 0650 R28/0800N FG VV/// 15/14 Q1017   
LFRC 242300Z AUTO 13007KT 2300 BR VV/// 15/14 Q1017 
LFRC 242230Z AUTO 13009KT 5000 BR OVC002 15/14 Q1017
LFRC 242200Z AUTO 13009KT 3800 -RADZ BR OVC002 15/14 Q1017  
LFRC 242130Z AUTO 14009KT 5000 BR OVC003 15/14 Q1018